KSAD/SAD METAR and TAF weather

Enter ICAO airport designator
Station Type Date Time Source
KSAD METAR 2021/03/07 08:51 UTC NOAA

KSAD 070851Z AUTO 13010KT 10SM CLR 13/M03 A3006 RMK AO2 SLP145 T01331028 53000


Station Type Date Time Source
KSAD Decoded METAR 2021/03/07 08:51 UTC NOAA

SAFFORD MUNICIPAL AIRPORT, AZ, United States (KSAD) 32-51N 109-38W 962M
Mar 07, 2021 - 03:51 AM EST / 2021.03.07 0851 UTC
Wind: from the SE (130 degrees) at 12 MPH (10 KT):0
Visibility: 10 mile(s):0
Sky conditions: clear
Temperature: 55.9 F (13.3 C)
Dew Point: 27.0 F (-2.8 C)
Relative Humidity: 32%
Pressure (altimeter): 30.06 in. Hg (1017 hPa)
Pressure tendency: 0.00 inches (0.0 hPa) higher than three hours ago
ob: KSAD 070851Z AUTO 13010KT 10SM CLR 13/M03 A3006 RMK AO2 SLP145 T01331028 53000
cycle: 9

Station Type Date Time Source
KSAD TAF UTC NOAA

Error!

Example: see airport list